createdAt,value
2017-03-22T00:00:32.661Z,6.3
2017-03-22T00:01:35.004Z,6.3
2017-03-22T00:02:37.588Z,6.3
2017-03-22T00:03:40.611Z,6.3
2017-03-22T00:04:42.959Z,6.3
2017-03-22T00:05:45.675Z,6.3
2017-03-22T00:06:48.023Z,6.3
2017-03-22T00:07:50.613Z,6.4
2017-03-22T00:08:53.718Z,6.3
2017-03-22T00:09:56.073Z,6.3
2017-03-22T00:10:58.424Z,6.2
2017-03-22T00:12:01.277Z,6.2
2017-03-22T00:13:03.634Z,6.1
2017-03-22T00:14:06.738Z,6.1
2017-03-22T00:15:09.083Z,6.2
2017-03-22T00:16:11.429Z,6.1
2017-03-22T00:17:14.281Z,6.2
2017-03-22T00:18:16.638Z,6.2
2017-03-22T00:19:19.746Z,6.3
2017-03-22T00:20:22.097Z,6.3
2017-03-22T00:21:24.310Z,6.2
2017-03-22T00:22:26.892Z,6.2
2017-03-22T00:23:29.747Z,6.2
2017-03-22T00:24:32.878Z,6.2
2017-03-22T00:25:35.222Z,6.3
2017-03-22T00:27:40.349Z,6.2
2017-03-22T00:28:42.567Z,6.2
2017-03-22T00:29:45.720Z,6.1
2017-03-22T00:30:47.931Z,6.1
2017-03-22T00:31:50.516Z,6.1
2017-03-22T00:32:53.375Z,6.1
2017-03-22T00:33:55.730Z,6.2
2017-03-22T00:34:58.888Z,6.2
2017-03-22T00:36:01.102Z,6.2
2017-03-22T00:37:03.459Z,6.3
2017-03-22T00:38:06.313Z,6.2
2017-03-22T00:39:08.707Z,6.2
2017-03-22T00:40:11.809Z,6.2
2017-03-22T00:41:14.019Z,6.2
2017-03-22T00:42:16.871Z,6.2
2017-03-22T00:43:19.218Z,6.2
2017-03-22T00:44:22.073Z,6.2
2017-03-22T00:45:24.589Z,6.2
2017-03-22T00:46:27.304Z,6.2
2017-03-22T00:47:29.693Z,6.2
2017-03-22T00:48:32.546Z,6.1
2017-03-22T00:49:34.763Z,6.1
2017-03-22T00:50:37.917Z,6.1
2017-03-22T00:51:40.264Z,6.1
2017-03-22T00:52:42.481Z,6.1
2017-03-22T00:53:45.386Z,6.1
2017-03-22T00:54:47.734Z,6.1
2017-03-22T00:55:50.897Z,6.1
2017-03-22T00:56:53.246Z,6
2017-03-22T00:57:55.597Z,6
2017-03-22T00:58:58.450Z,6
2017-03-22T01:00:00.805Z,6.1
2017-03-22T01:01:03.958Z,6
2017-03-22T01:02:06.216Z,6
2017-03-22T01:03:08.565Z,6
2017-03-22T01:04:11.417Z,6
2017-03-22T01:05:13.765Z,6
2017-03-22T01:06:16.788Z,6
2017-03-22T01:07:19.137Z,5.9
2017-03-22T01:08:21.487Z,5.9
2017-03-22T01:09:24.343Z,5.9
2017-03-22T01:10:26.690Z,5.8
2017-03-22T01:11:29.842Z,5.8
2017-03-22T01:12:32.058Z,5.8
2017-03-22T01:13:34.313Z,5.8
2017-03-22T01:14:37.174Z,5.8
2017-03-22T01:15:39.888Z,5.8
2017-03-22T01:16:42.437Z,5.8
2017-03-22T01:17:44.787Z,5.8
2017-03-22T01:18:47.641Z,5.8
2017-03-22T01:19:50.049Z,5.8
2017-03-22T01:20:52.901Z,5.7
2017-03-22T01:21:55.563Z,5.6
2017-03-22T01:22:57.918Z,5.6
2017-03-22T01:24:00.267Z,5.6
2017-03-22T01:25:02.848Z,5.7
2017-03-22T01:26:05.699Z,5.6
2017-03-22T01:27:08.300Z,5.6
2017-03-22T01:28:10.514Z,5.6
2017-03-22T01:29:13.370Z,5.6
2017-03-22T01:30:16.223Z,5.6
2017-03-22T01:31:18.573Z,5.6
2017-03-22T01:32:21.721Z,5.6
2017-03-22T01:33:23.578Z,5.6
2017-03-22T01:34:26.438Z,5.5
2017-03-22T01:35:28.785Z,5.5
2017-03-22T01:36:31.631Z,5.5
2017-03-22T01:37:34.659Z,5.4
2017-03-22T01:38:37.072Z,5.5
2017-03-22T01:39:39.420Z,5.5
2017-03-22T01:40:41.773Z,5.4
2017-03-22T01:41:44.684Z,5.3
2017-03-22T01:42:47.344Z,5.3
2017-03-22T01:43:49.701Z,5.3
2017-03-22T01:44:52.057Z,5.3
2017-03-22T01:46:57.325Z,5.3
2017-03-22T01:48:00.428Z,5.3
2017-03-22T01:49:02.271Z,5.3
2017-03-22T01:50:05.130Z,5.2
2017-03-22T01:51:07.480Z,5.2
2017-03-22T01:52:10.332Z,5.3
2017-03-22T01:53:12.987Z,5.2
2017-03-22T01:54:15.343Z,5.2
2017-03-22T01:55:18.196Z,5.2
2017-03-22T01:56:20.413Z,5.3
2017-03-22T01:57:23.138Z,5.3
2017-03-22T01:58:25.739Z,5.3
2017-03-22T01:59:28.098Z,5.3
2017-03-22T02:00:30.947Z,5.2
2017-03-22T02:01:33.291Z,5.2
2017-03-22T02:02:35.874Z,5.2
2017-03-22T02:03:39.027Z,5.2
2017-03-22T02:04:41.376Z,5.1
2017-03-22T02:05:43.723Z,5.1
2017-03-22T02:06:46.582Z,5.1
2017-03-22T02:07:48.807Z,5.1
2017-03-22T02:08:51.913Z,5.1
2017-03-22T02:09:54.283Z,5
2017-03-22T02:10:56.638Z,5.1
2017-03-22T02:11:58.989Z,5.1
2017-03-22T02:13:01.843Z,5
2017-03-22T02:14:04.365Z,5.1
2017-03-22T02:15:06.712Z,5.1
2017-03-22T02:16:09.561Z,5
2017-03-22T02:17:11.918Z,5
2017-03-22T02:18:14.772Z,5
2017-03-22T02:19:17.418Z,5
2017-03-22T02:20:19.768Z,5
2017-03-22T02:21:22.615Z,5
2017-03-22T02:22:24.960Z,5
2017-03-22T02:23:27.310Z,5
2017-03-22T02:25:32.820Z,4.9
2017-03-22T02:26:35.170Z,5
2017-03-22T02:27:38.021Z,5
2017-03-22T02:28:40.372Z,4.9
2017-03-22T02:29:43.093Z,4.9
2017-03-22T02:30:45.745Z,4.9
2017-03-22T02:31:47.956Z,4.9
2017-03-22T02:32:50.674Z,4.9
2017-03-22T02:33:53.527Z,4.9
2017-03-22T02:34:55.885Z,4.9
2017-03-22T02:35:58.488Z,4.8
2017-03-22T02:37:00.705Z,4.8
2017-03-22T02:38:03.560Z,4.8
2017-03-22T02:39:06.480Z,4.8
2017-03-22T02:40:08.831Z,4.8
2017-03-22T02:41:11.431Z,4.7
2017-03-22T02:42:13.646Z,4.7
2017-03-22T02:43:16.502Z,4.7
2017-03-22T02:44:19.229Z,4.8
2017-03-22T02:45:21.579Z,4.8
2017-03-22T02:46:24.180Z,4.9
2017-03-22T02:47:26.527Z,4.8
2017-03-22T02:48:29.112Z,4.8
2017-03-22T02:49:31.830Z,4.8
2017-03-22T02:50:34.245Z,4.8
2017-03-22T02:51:37.397Z,4.8
2017-03-22T02:52:39.610Z,4.8
2017-03-22T02:53:41.965Z,4.8
2017-03-22T02:54:44.816Z,4.8
2017-03-22T02:55:47.168Z,4.8
2017-03-22T02:56:50.275Z,4.8
2017-03-22T02:57:52.627Z,4.8
2017-03-22T02:58:54.977Z,4.8
2017-03-22T02:59:57.833Z,4.8
2017-03-22T03:01:00.052Z,4.8
2017-03-22T03:02:03.208Z,4.8
2017-03-22T03:03:05.425Z,4.7
2017-03-22T03:04:07.777Z,4.8
2017-03-22T03:05:10.633Z,4.6
2017-03-22T03:06:12.985Z,4.6
2017-03-22T03:08:18.565Z,4.6
2017-03-22T03:09:20.924Z,4.6
2017-03-22T03:10:23.278Z,4.6
2017-03-22T03:11:25.997Z,4.6
2017-03-22T03:12:28.212Z,4.6
2017-03-22T03:13:31.238Z,4.6
2017-03-22T03:14:33.585Z,4.6
2017-03-22T03:15:35.930Z,4.6
2017-03-22T03:16:38.520Z,4.6
2017-03-22T03:17:41.375Z,4.5
2017-03-22T03:18:44.030Z,4.5
2017-03-22T03:19:46.380Z,4.5
2017-03-22T03:20:49.232Z,4.5
2017-03-22T03:21:51.578Z,4.5
2017-03-22T03:22:53.931Z,4.5
2017-03-22T03:23:57.096Z,4.5
2017-03-22T03:24:59.455Z,4.5
2017-03-22T03:26:01.807Z,4.5
2017-03-22T03:27:04.523Z,4.4
2017-03-22T03:28:06.877Z,4.4
2017-03-22T03:29:10.034Z,4.5
2017-03-22T03:30:12.122Z,4.5
2017-03-22T03:31:14.833Z,4.5
2017-03-22T03:32:17.100Z,4.4
2017-03-22T03:33:19.586Z,4.4
2017-03-22T03:34:22.736Z,4.4
2017-03-22T03:35:24.943Z,4.4
2017-03-22T03:36:28.355Z,4.4
2017-03-22T03:37:30.187Z,4.4
2017-03-22T03:38:32.537Z,4.4
2017-03-22T03:39:35.683Z,4.4
2017-03-22T03:40:37.884Z,4.4
2017-03-22T03:41:40.085Z,4.4
2017-03-22T03:42:42.798Z,4.3
2017-03-22T03:43:46.201Z,4.3
2017-03-22T03:44:48.149Z,4.3
2017-03-22T03:45:50.485Z,4.3
2017-03-22T03:46:53.192Z,4.3
2017-03-22T03:47:56.038Z,4.3
2017-03-22T03:48:58.382Z,4.3
2017-03-22T03:50:01.532Z,4.3
2017-03-22T03:51:03.746Z,4.3
2017-03-22T03:52:06.091Z,4.3
2017-03-22T03:53:08.934Z,4.3
2017-03-22T03:54:11.275Z,4.3
2017-03-22T03:55:13.870Z,4.3
2017-03-22T03:56:16.213Z,4.3
2017-03-22T03:57:19.118Z,4.3
2017-03-22T03:58:21.331Z,4.3
2017-03-22T03:59:24.179Z,4.3
2017-03-22T04:00:26.825Z,4.3
2017-03-22T04:01:29.182Z,4.3
2017-03-22T04:02:32.592Z,4.3
2017-03-22T04:03:34.425Z,4.4
2017-03-22T04:04:36.763Z,4.4
2017-03-22T04:05:39.728Z,4.4
2017-03-22T04:06:42.073Z,4.4
2017-03-22T04:07:44.936Z,4.5
2017-03-22T04:08:47.289Z,4.5
2017-03-22T04:09:49.638Z,4.5
2017-03-22T04:10:52.788Z,4.5
2017-03-22T04:11:55.132Z,4.5
2017-03-22T04:12:57.340Z,4.5
2017-03-22T04:14:00.053Z,4.5
2017-03-22T04:15:02.905Z,4.5
2017-03-22T04:16:05.561Z,4.4
2017-03-22T04:17:07.808Z,4.4
2017-03-22T04:18:10.153Z,4.4
2017-03-22T04:19:13.010Z,4.4
2017-03-22T04:20:15.356Z,4.4
2017-03-22T04:21:18.452Z,4.4
2017-03-22T04:22:20.794Z,4.4
2017-03-22T04:23:23.002Z,4.4
2017-03-22T04:24:25.713Z,4.4
2017-03-22T04:25:28.574Z,4.4
2017-03-22T04:26:31.217Z,4.4
2017-03-22T04:27:33.572Z,4.3
2017-03-22T04:28:36.290Z,4.3
2017-03-22T04:29:38.495Z,4.3
2017-03-22T04:30:41.334Z,4.3
2017-03-22T04:31:43.925Z,4.3
2017-03-22T04:32:46.269Z,4.3
2017-03-22T04:33:49.119Z,4.3
2017-03-22T04:34:51.460Z,4.3
2017-03-22T04:35:53.801Z,4.3
2017-03-22T04:37:59.359Z,4.3
2017-03-22T04:39:01.701Z,4.3
2017-03-22T04:40:04.539Z,4.3
2017-03-22T04:41:06.878Z,4.3
2017-03-22T04:42:09.225Z,4.3
2017-03-22T04:43:12.321Z,4.3
2017-03-22T04:44:14.539Z,4.2
2017-03-22T04:45:17.246Z,4.2
2017-03-22T04:46:19.597Z,4.3
2017-03-22T04:47:22.437Z,4.3
2017-03-22T04:48:25.040Z,4.3
2017-03-22T04:49:27.385Z,4.3
2017-03-22T04:50:30.228Z,4.3
2017-03-22T04:51:32.563Z,4.2
2017-03-22T04:52:34.913Z,4.2
2017-03-22T04:53:38.016Z,4.2
2017-03-22T04:54:40.927Z,4.2
2017-03-22T04:55:42.629Z,4.1
2017-03-22T04:56:45.471Z,4.2
2017-03-22T04:57:47.816Z,4.3
2017-03-22T04:58:50.910Z,4.2
2017-03-22T04:59:53.253Z,4.1
2017-03-22T05:00:55.592Z,4.1
2017-03-22T05:01:58.438Z,4.1
2017-03-22T05:03:00.774Z,4.1
2017-03-22T05:04:03.380Z,4.1
2017-03-22T05:05:05.728Z,4.1
2017-03-22T05:06:08.572Z,4.1
2017-03-22T05:07:10.916Z,4.1
2017-03-22T05:08:13.762Z,4.2
2017-03-22T05:09:16.358Z,4.1
2017-03-22T05:10:18.698Z,4.1
2017-03-22T05:11:21.556Z,4.1
2017-03-22T05:12:23.903Z,4.1
2017-03-22T05:13:26.249Z,4.1
2017-03-22T05:14:29.353Z,4.1
2017-03-22T05:15:31.694Z,4.1
2017-03-22T05:16:34.095Z,4.1
2017-03-22T05:17:36.670Z,4.1
2017-03-22T05:18:39.520Z,4
2017-03-22T05:19:42.114Z,4
2017-03-22T05:20:44.331Z,4
2017-03-22T05:21:47.178Z,4
2017-03-22T05:22:50.081Z,4
2017-03-22T05:23:51.919Z,4
2017-03-22T05:24:55.014Z,4
2017-03-22T05:28:02.167Z,3.9
2017-03-22T05:29:04.876Z,3.9
2017-03-22T05:30:07.844Z,3.9
2017-03-22T05:32:12.600Z,3.8
2017-03-22T05:33:14.810Z,3.8
2017-03-22T05:34:17.703Z,3.8
2017-03-22T05:35:20.848Z,3.8
2017-03-22T05:36:22.548Z,3.8
2017-03-22T05:37:25.262Z,3.8
2017-03-22T05:38:28.115Z,3.8
2017-03-22T05:39:30.455Z,3.8
2017-03-22T05:40:33.414Z,3.8
2017-03-22T05:41:35.756Z,3.7
2017-03-22T05:42:38.099Z,3.7
2017-03-22T05:43:40.945Z,3.8
2017-03-22T05:44:43.284Z,3.8
2017-03-22T05:45:46.413Z,3.8
2017-03-22T05:46:48.484Z,3.8
2017-03-22T05:47:51.052Z,3.8
2017-03-22T05:48:53.398Z,3.8
2017-03-22T05:49:56.250Z,3.9
2017-03-22T05:50:58.842Z,3.9
2017-03-22T05:52:01.744Z,3.9
2017-03-22T05:53:04.091Z,4
2017-03-22T05:54:06.437Z,4
2017-03-22T05:55:08.646Z,4
2017-03-22T05:56:11.802Z,4.1
2017-03-22T05:57:14.143Z,4.1
2017-03-22T05:58:16.855Z,4.3
2017-03-22T05:59:19.068Z,4.6
2017-03-22T06:00:22.479Z,4.8
2017-03-22T06:01:24.568Z,4.8
2017-03-22T06:02:27.344Z,4.8
2017-03-22T06:03:29.684Z,4.8
2017-03-22T06:04:32.024Z,4.8
2017-03-22T06:05:34.227Z,4.8
2017-03-22T06:06:37.319Z,4.7
2017-03-22T06:07:39.528Z,4.6
2017-03-22T06:08:42.381Z,4.7
2017-03-22T06:09:44.725Z,4.8
2017-03-22T06:10:47.439Z,4.8
2017-03-22T06:11:50.403Z,5
2017-03-22T06:12:52.611Z,5
2017-03-22T06:13:54.947Z,5.1
2017-03-22T06:14:57.794Z,5.1
2017-03-22T06:16:00.190Z,5.1
2017-03-22T06:17:03.150Z,5.1
2017-03-22T06:18:05.226Z,5
2017-03-22T06:19:08.072Z,5
2017-03-22T06:20:10.411Z,5
2017-03-22T06:21:13.119Z,5
2017-03-22T06:22:16.267Z,4.8
2017-03-22T06:23:18.104Z,4.8
2017-03-22T06:24:20.954Z,4.8
2017-03-22T06:26:26.209Z,4.6
2017-03-22T06:27:28.670Z,4.6
2017-03-22T06:28:31.010Z,4.6
2017-03-22T06:29:33.717Z,4.6
2017-03-22T06:30:36.566Z,4.6
2017-03-22T06:31:38.908Z,4.8
2017-03-22T06:32:41.503Z,5
2017-03-22T06:33:43.857Z,5.4
2017-03-22T06:34:46.702Z,5.6
2017-03-22T06:35:48.906Z,5.6
2017-03-22T06:36:51.748Z,5.6
2017-03-22T06:37:54.890Z,5.8
2017-03-22T06:38:56.732Z,5.9
2017-03-22T06:39:59.577Z,6.1
2017-03-22T06:41:01.910Z,6
2017-03-22T06:42:04.604Z,6
2017-03-22T06:43:07.696Z,6.1
2017-03-22T06:44:10.043Z,6.3
2017-03-22T06:45:12.385Z,6.4
2017-03-22T06:46:15.229Z,6.3
2017-03-22T06:47:17.573Z,6.2
2017-03-22T06:48:20.222Z,6.1
2017-03-22T06:49:22.579Z,5.9
2017-03-22T06:50:25.430Z,5.8
2017-03-22T06:51:27.638Z,5.6
2017-03-22T06:52:30.481Z,5.6
2017-03-22T06:53:33.591Z,5.5
2017-03-22T06:54:35.438Z,5.3
2017-03-22T06:55:38.317Z,5.3
2017-03-22T06:56:40.674Z,5.3
2017-03-22T06:57:43.520Z,5.3
2017-03-22T06:58:46.118Z,5.3
2017-03-22T07:00:51.942Z,5.5
2017-03-22T07:01:53.777Z,5.8
2017-03-22T07:02:56.493Z,5.9
2017-03-22T07:03:59.089Z,5.8
2017-03-22T07:05:01.427Z,5.8
2017-03-22T07:06:04.867Z,5.9
2017-03-22T07:07:06.715Z,5.9
2017-03-22T07:08:09.058Z,5.9
2017-03-22T07:09:12.020Z,6
2017-03-22T07:10:14.365Z,6
2017-03-22T07:11:17.213Z,6.1
2017-03-22T07:12:19.559Z,6
2017-03-22T07:13:22.272Z,6
2017-03-22T07:14:24.733Z,6
2017-03-22T07:15:27.579Z,6.1
2017-03-22T07:16:29.916Z,6.1
2017-03-22T07:17:32.764Z,6.1
2017-03-22T07:18:35.106Z,6.1
2017-03-22T07:19:38.202Z,6
2017-03-22T07:20:40.279Z,6.1
2017-03-22T07:21:42.855Z,6.1
2017-03-22T07:22:45.698Z,6.2
2017-03-22T07:23:48.053Z,6.1
2017-03-22T07:24:51.155Z,6.1
2017-03-22T07:25:53.494Z,6.1
2017-03-22T07:26:55.829Z,6.1
2017-03-22T07:27:58.185Z,5.9
2017-03-22T07:29:01.026Z,6
2017-03-22T07:30:03.617Z,6
2017-03-22T07:30:33.620Z,6
2017-03-22T07:31:06.134Z,6
2017-03-22T07:32:08.985Z,6.1
2017-03-22T07:32:39.622Z,6.1
2017-03-22T07:33:11.266Z,6.1
2017-03-22T07:34:14.114Z,6.2
2017-03-22T07:35:17.321Z,6.3
2017-03-22T07:36:19.163Z,6.3
2017-03-22T07:37:21.517Z,6.3
2017-03-22T07:38:24.369Z,6.4
2017-03-22T07:39:26.713Z,6.6
2017-03-22T07:40:29.859Z,6.6
2017-03-22T07:41:32.193Z,6.8
2017-03-22T07:42:34.400Z,6.8
2017-03-22T07:43:37.244Z,6.8
2017-03-22T07:44:40.019Z,6.9
2017-03-22T07:45:42.606Z,6.8
2017-03-22T07:46:44.818Z,6.9
2017-03-22T07:47:47.666Z,7
2017-03-22T07:48:50.011Z,6.9
2017-03-22T07:49:52.860Z,6.9
2017-03-22T07:50:55.504Z,7
2017-03-22T07:51:57.851Z,7
2017-03-22T07:53:00.697Z,7.1
2017-03-22T07:54:03.043Z,7.1
2017-03-22T07:56:08.599Z,7
2017-03-22T07:57:10.938Z,7
2017-03-22T07:58:13.785Z,7
2017-03-22T07:59:16.130Z,7
2017-03-22T08:00:18.981Z,7
2017-03-22T08:01:21.438Z,7.1
2017-03-22T08:02:23.779Z,7.3
2017-03-22T08:03:26.623Z,7.3
2017-03-22T08:04:28.967Z,7.5
2017-03-22T08:05:31.715Z,7.3
2017-03-22T08:06:34.726Z,7.5
2017-03-22T08:07:37.072Z,7.5
2017-03-22T08:08:39.287Z,7.5
2017-03-22T08:09:42.003Z,7.5
2017-03-22T08:10:44.847Z,7.4
2017-03-22T08:11:47.441Z,7.3
2017-03-22T08:12:49.650Z,7.4
2017-03-22T08:13:52.508Z,7.5
2017-03-22T08:14:55.365Z,7.5
2017-03-22T08:15:57.702Z,7.6
2017-03-22T08:17:01.374Z,7.6
2017-03-22T08:18:02.712Z,7.6
2017-03-22T08:20:08.203Z,7.8
2017-03-22T08:21:10.541Z,7.8
2017-03-22T08:22:13.635Z,7.8
2017-03-22T08:23:15.971Z,7.8
2017-03-22T08:24:18.321Z,8
2017-03-22T08:25:21.165Z,8.1
2017-03-22T08:26:23.871Z,8.3
2017-03-22T08:27:26.460Z,8.3
2017-03-22T08:28:28.801Z,8.3
2017-03-22T08:29:31.645Z,8.2
2017-03-22T08:30:34.362Z,8.2
2017-03-22T08:31:36.700Z,8.3
2017-03-22T08:32:39.801Z,8.4
2017-03-22T08:33:42.140Z,8.4
2017-03-22T08:34:12.774Z,8.4
2017-03-22T08:34:44.411Z,8.6
2017-03-22T08:35:46.988Z,8.9
2017-03-22T08:36:49.700Z,9.2
2017-03-22T08:37:52.844Z,9.6
2017-03-22T08:38:54.916Z,9.8
2017-03-22T08:39:57.772Z,10
2017-03-22T08:41:00.350Z,10.2
2017-03-22T08:42:03.199Z,10.5
2017-03-22T08:43:05.790Z,10.5
2017-03-22T08:44:08.129Z,10.6
2017-03-22T08:45:10.973Z,10.7
2017-03-22T08:46:13.319Z,10.8
2017-03-22T08:47:16.169Z,10.5
2017-03-22T08:48:18.816Z,10.4
2017-03-22T08:49:21.149Z,10.4
2017-03-22T08:50:23.989Z,10.5
2017-03-22T08:51:26.697Z,10.6
2017-03-22T08:52:29.046Z,10.4
2017-03-22T08:53:32.193Z,10.4
2017-03-22T08:54:34.405Z,10.6
2017-03-22T08:55:36.984Z,10.7
2017-03-22T08:56:39.693Z,10.5
2017-03-22T08:57:42.537Z,10.1
2017-03-22T08:58:45.630Z,10.1
2017-03-22T09:00:50.378Z,10
2017-03-22T09:01:53.244Z,9.6
2017-03-22T09:02:56.090Z,9.5
2017-03-22T09:03:58.687Z,9.5
2017-03-22T09:05:00.898Z,9.6
2017-03-22T09:06:03.613Z,9.7
2017-03-22T09:07:06.452Z,9.8
2017-03-22T09:08:09.157Z,9.8
2017-03-22T09:09:12.165Z,10
2017-03-22T09:10:14.507Z,10
2017-03-22T09:11:16.578Z,9.9
2017-03-22T09:12:19.806Z,9.5
2017-03-22T09:13:22.157Z,9.2
2017-03-22T09:14:25.247Z,9
2017-03-22T09:15:27.591Z,9
2017-03-22T09:16:30.438Z,9
2017-03-22T09:17:33.145Z,9
2017-03-22T09:18:35.482Z,8.8
2017-03-22T09:19:38.575Z,8.8
2017-03-22T09:20:40.916Z,8.8
2017-03-22T09:21:43.625Z,8.8
2017-03-22T09:22:45.968Z,8.9
2017-03-22T09:23:49.389Z,9
2017-03-22T09:24:51.344Z,9
2017-03-22T09:25:54.191Z,8.9
2017-03-22T09:26:56.535Z,8.9
2017-03-22T09:27:59.380Z,8.9
2017-03-22T09:29:02.229Z,8.9
2017-03-22T09:30:04.548Z,9
2017-03-22T09:31:07.388Z,9
2017-03-22T09:32:09.731Z,9
2017-03-22T09:33:12.445Z,8.9
2017-03-22T09:34:15.290Z,9
2017-03-22T09:35:17.884Z,8.8
2017-03-22T09:36:20.096Z,8.8
2017-03-22T09:37:22.938Z,9
2017-03-22T09:38:25.653Z,9.3
2017-03-22T09:39:28.505Z,9.4
2017-03-22T09:40:31.098Z,9.5
2017-03-22T09:41:33.303Z,9.5
2017-03-22T09:42:36.010Z,9.6
2017-03-22T09:43:38.719Z,9.8
2017-03-22T09:44:41.425Z,9.9
2017-03-22T09:45:44.521Z,9.7
2017-03-22T09:46:46.859Z,9.5
2017-03-22T09:47:49.700Z,9.6
2017-03-22T09:48:52.041Z,9.6
2017-03-22T09:49:54.883Z,9.7
2017-03-22T09:50:57.475Z,9.7
2017-03-22T09:52:00.181Z,9.8
2017-03-22T09:52:34.331Z,9.8
2017-03-22T09:54:05.359Z,9.7
2017-03-22T09:55:08.202Z,9.5
2017-03-22T09:56:10.660Z,9.3
2017-03-22T09:57:13.236Z,9.5
2017-03-22T09:58:15.951Z,9.4
2017-03-22T09:59:18.658Z,9.5
2017-03-22T10:00:20.864Z,9.6
2017-03-22T10:01:23.825Z,9.8
2017-03-22T10:02:26.671Z,10
2017-03-22T10:03:29.008Z,10
2017-03-22T10:04:31.847Z,9.7
2017-03-22T10:05:34.285Z,9.5
2017-03-22T10:06:37.244Z,9.6
2017-03-22T10:07:39.311Z,9.5
2017-03-22T10:08:42.385Z,9.6
2017-03-22T10:09:44.724Z,9.6
2017-03-22T10:10:47.563Z,9.6
2017-03-22T10:11:50.708Z,9.9
2017-03-22T10:12:52.918Z,9.9
2017-03-22T10:13:55.622Z,10
2017-03-22T10:14:57.958Z,9.9
2017-03-22T10:16:00.803Z,9.7
2017-03-22T10:17:03.948Z,9.6
2017-03-22T10:18:06.016Z,10
2017-03-22T10:19:08.861Z,10.1
2017-03-22T10:20:11.199Z,10.1
2017-03-22T10:21:14.042Z,10.1
2017-03-22T10:22:17.191Z,10
2017-03-22T10:23:19.396Z,10
2017-03-22T10:24:21.603Z,10.1
2017-03-22T10:25:24.313Z,10.1
2017-03-22T10:26:27.157Z,10.1
2017-03-22T10:27:30.118Z,10.1
2017-03-22T10:28:32.213Z,10.1
2017-03-22T10:29:34.929Z,10.1
2017-03-22T10:30:37.772Z,10.1
2017-03-22T10:31:40.609Z,10.1
2017-03-22T10:32:43.203Z,9.9
2017-03-22T10:33:46.046Z,10
2017-03-22T10:34:48.387Z,10
2017-03-22T10:35:51.229Z,10.1
2017-03-22T10:36:53.572Z,10.1
2017-03-22T10:37:56.529Z,10.1
2017-03-22T10:38:58.869Z,10.2
2017-03-22T10:40:01.711Z,10
2017-03-22T10:41:04.444Z,9.8
2017-03-22T10:42:06.785Z,9.7
2017-03-22T10:43:09.886Z,9.8
2017-03-22T10:44:12.088Z,9.8
2017-03-22T10:45:14.796Z,10.1
2017-03-22T10:46:17.677Z,10
2017-03-22T10:47:20.030Z,9.8
2017-03-22T10:48:22.995Z,9.9
2017-03-22T10:49:25.329Z,10.1
2017-03-22T10:50:28.169Z,10.1
2017-03-22T10:51:31.014Z,10.1
2017-03-22T10:52:33.358Z,10
2017-03-22T10:53:15.432Z,10
2017-03-22T10:54:39.158Z,10.3
2017-03-22T10:55:41.365Z,10.2
2017-03-22T10:56:44.206Z,10
2017-03-22T10:57:46.550Z,10.1
2017-03-22T10:58:49.393Z,10.1
2017-03-22T10:59:51.713Z,10.1
2017-03-22T11:00:54.425Z,10.3
2017-03-22T11:01:57.131Z,10.5
2017-03-22T11:02:59.973Z,10.3
2017-03-22T11:04:02.544Z,10.3
2017-03-22T11:05:05.232Z,10.2
2017-03-22T11:06:08.073Z,10
2017-03-22T11:07:10.274Z,9.7
2017-03-22T11:08:13.118Z,10
2017-03-22T11:09:15.958Z,10.1
2017-03-22T11:10:18.551Z,10.3
2017-03-22T11:11:21.259Z,10.4
2017-03-22T11:12:23.464Z,10.3
2017-03-22T11:13:26.302Z,10.5
2017-03-22T11:14:29.148Z,10.3
2017-03-22T11:15:31.741Z,10.3
2017-03-22T11:16:34.584Z,10.3
2017-03-22T11:17:36.923Z,10.3
2017-03-22T11:18:39.635Z,10.3
2017-03-22T11:19:42.339Z,10.4
2017-03-22T11:20:45.486Z,10.5
2017-03-22T11:21:47.827Z,10.5
2017-03-22T11:22:50.026Z,10.5
2017-03-22T11:23:52.873Z,10.3
2017-03-22T11:24:55.719Z,10.3
2017-03-22T11:25:58.311Z,10.3
2017-03-22T11:27:00.517Z,10.5
2017-03-22T11:28:03.225Z,10.5
2017-03-22T11:29:05.793Z,10.2
2017-03-22T11:30:08.636Z,10.3
2017-03-22T11:31:11.731Z,10.1
2017-03-22T11:32:13.937Z,10
2017-03-22T11:33:16.785Z,10.1
2017-03-22T11:34:19.492Z,10.2
2017-03-22T11:35:21.834Z,10.3
2017-03-22T11:36:24.977Z,10.4
2017-03-22T11:37:27.185Z,10.3
2017-03-22T11:38:29.758Z,10.3
2017-03-22T11:39:32.467Z,10.4
2017-03-22T11:40:35.308Z,10.5
2017-03-22T11:41:38.405Z,10.6
2017-03-22T11:42:40.609Z,10.5
2017-03-22T11:43:43.458Z,10.4
2017-03-22T11:44:45.800Z,10.3
2017-03-22T11:45:48.636Z,10
2017-03-22T11:46:51.469Z,10
2017-03-22T11:47:54.176Z,9.8
2017-03-22T11:48:56.375Z,9.8
2017-03-22T11:49:59.223Z,9.8
2017-03-22T11:51:02.621Z,9.7
2017-03-22T11:52:04.634Z,9.8
2017-03-22T11:53:06.878Z,9.8
2017-03-22T11:54:09.727Z,9.8
2017-03-22T11:55:12.565Z,9.8
2017-03-22T11:56:15.409Z,9.6
2017-03-22T11:57:18.009Z,9.5
2017-03-22T11:58:20.354Z,9.4
2017-03-22T11:59:22.925Z,9.5
2017-03-22T12:00:25.639Z,9.6
2017-03-22T12:01:28.480Z,9.7
2017-03-22T12:02:30.989Z,9.8
2017-03-22T12:03:33.693Z,9.8
2017-03-22T12:04:04.324Z,9.8
2017-03-22T12:04:36.496Z,9.7
2017-03-22T12:05:06.594Z,9.7
2017-03-22T12:06:41.447Z,9.6
2017-03-22T12:07:44.542Z,9.5
2017-03-22T12:08:46.885Z,9.4
2017-03-22T12:09:49.728Z,9.4
2017-03-22T12:10:51.932Z,9.5
2017-03-22T12:11:54.777Z,9.6
2017-03-22T12:12:57.878Z,9.8
2017-03-22T12:14:00.221Z,10
2017-03-22T12:15:02.928Z,10.1
2017-03-22T12:16:05.503Z,10.1
2017-03-22T12:17:08.349Z,10.1
2017-03-22T12:18:10.806Z,10.1
2017-03-22T12:19:13.648Z,10
2017-03-22T12:21:18.899Z,10.1
2017-03-22T12:22:21.242Z,10.1
2017-03-22T12:23:24.334Z,10.1
2017-03-22T12:24:26.670Z,10.3
2017-03-22T12:25:29.519Z,10.4
2017-03-22T12:26:31.854Z,10.3
2017-03-22T12:27:34.561Z,10.3
2017-03-22T12:28:38.226Z,10.4
2017-03-22T12:29:39.964Z,10.3
2017-03-22T12:30:42.810Z,10.2
2017-03-22T12:31:45.152Z,10.3
2017-03-22T12:32:48.002Z,10.3
2017-03-22T12:33:50.960Z,10.3
2017-03-22T12:34:53.298Z,10.5
2017-03-22T12:35:56.007Z,10.5
2017-03-22T12:36:58.212Z,10.6
2017-03-22T12:38:01.055Z,10.7
2017-03-22T12:39:04.015Z,10.6
2017-03-22T12:40:06.217Z,10.5
2017-03-22T12:41:09.068Z,10.4
2017-03-22T12:42:11.775Z,10.3
2017-03-22T12:43:14.482Z,10.3
2017-03-22T12:45:19.978Z,10.2
2017-03-22T12:46:22.685Z,10.3
2017-03-22T12:47:24.892Z,10.3
2017-03-22T12:48:27.730Z,10.1
2017-03-22T12:49:30.571Z,10.1
2017-03-22T12:50:33.161Z,10.1
2017-03-22T12:51:36.003Z,10.1
2017-03-22T12:52:38.208Z,10.1
2017-03-22T12:53:40.915Z,10.2
2017-03-22T12:54:43.489Z,10.4
2017-03-22T12:55:46.589Z,10.5
2017-03-22T12:56:48.793Z,10.5
2017-03-22T12:57:51.634Z,10.6
2017-03-22T12:58:54.338Z,10.6
2017-03-22T12:59:57.179Z,10.8
2017-03-22T13:01:00.009Z,11
2017-03-22T13:02:02.353Z,10.8
2017-03-22T13:03:05.193Z,10.9
2017-03-22T13:04:07.396Z,10.9
2017-03-22T13:05:10.115Z,10.8
2017-03-22T13:06:13.212Z,10.6
2017-03-22T13:08:18.323Z,10.6
2017-03-22T13:09:21.162Z,10.5
2017-03-22T13:10:23.502Z,10.6
2017-03-22T13:11:26.600Z,10.5
2017-03-22T13:12:28.941Z,10.3
2017-03-22T13:13:31.782Z,10.3
2017-03-22T13:14:34.118Z,10.5
2017-03-22T13:15:36.831Z,10.5
2017-03-22T13:16:39.974Z,10.5
2017-03-22T13:17:42.183Z,10.7
2017-03-22T13:18:44.896Z,10.7
2017-03-22T13:19:47.734Z,10.8
2017-03-22T13:20:50.077Z,10.7
2017-03-22T13:21:53.041Z,10.6
2017-03-22T13:22:55.249Z,10.7
2017-03-22T13:23:57.962Z,10.5
2017-03-22T13:25:00.812Z,10.6
2017-03-22T13:26:03.659Z,10.8
2017-03-22T13:27:06.251Z,10.8
2017-03-22T13:28:09.095Z,10.8
2017-03-22T13:29:11.438Z,10.7
2017-03-22T13:30:14.145Z,10.8
2017-03-22T13:31:16.853Z,10.8
2017-03-22T13:32:19.813Z,10.8
2017-03-22T13:33:22.155Z,10.9
2017-03-22T13:34:25.004Z,10.9
2017-03-22T13:35:27.343Z,11
2017-03-22T13:36:30.189Z,11
2017-03-22T13:37:33.150Z,11
2017-03-22T13:38:35.358Z,11
2017-03-22T13:39:05.992Z,11
2017-03-22T13:39:38.136Z,10.9
2017-03-22T13:40:08.633Z,10.9
2017-03-22T13:41:43.558Z,10.8
2017-03-22T13:42:46.658Z,10.9
2017-03-22T13:43:48.996Z,10.8
2017-03-22T13:44:51.202Z,10.7
2017-03-22T13:45:54.042Z,10.8
2017-03-22T13:46:56.890Z,10.8
2017-03-22T13:47:59.984Z,10.6
2017-03-22T13:49:02.190Z,10.7
2017-03-22T13:50:04.896Z,10.6
2017-03-22T13:51:07.233Z,10.5
2017-03-22T13:52:10.074Z,10.6
2017-03-22T13:53:13.070Z,10.6
2017-03-22T13:54:15.141Z,10.6
2017-03-22T13:55:18.357Z,10.6
2017-03-22T13:56:20.570Z,10.5
2017-03-22T13:57:23.146Z,10.6
2017-03-22T13:58:25.972Z,10.8
2017-03-22T13:58:56.602Z,10.8
2017-03-22T13:59:28.956Z,11
2017-03-22T14:00:31.166Z,11.1
2017-03-22T14:01:33.875Z,11
2017-03-22T14:02:36.715Z,11
2017-03-22T14:03:39.811Z,10.9
2017-03-22T14:05:44.561Z,10.8
2017-03-22T14:06:47.408Z,10.8
2017-03-22T14:07:50.250Z,10.8
2017-03-22T14:08:52.705Z,11
2017-03-22T14:09:55.547Z,10.8
2017-03-22T14:10:57.752Z,10.8
2017-03-22T14:12:00.594Z,10.8
2017-03-22T14:13:03.435Z,10.8
2017-03-22T14:14:06.539Z,10.8
2017-03-22T14:15:08.881Z,10.8
2017-03-22T14:16:11.454Z,10.8
2017-03-22T14:17:14.023Z,10.7
2017-03-22T14:18:16.740Z,10.5
2017-03-22T14:19:19.836Z,10.3
2017-03-22T14:20:22.176Z,10.4
2017-03-22T14:21:24.243Z,10.5
2017-03-22T14:22:27.319Z,10.5
2017-03-22T14:23:30.034Z,10.5
2017-03-22T14:24:33.130Z,10.6
2017-03-22T14:25:35.335Z,10.8
2017-03-22T14:26:38.178Z,10.8
2017-03-22T14:27:40.517Z,10.8
2017-03-22T14:28:43.090Z,10.9
2017-03-22T14:29:46.183Z,10.9
2017-03-22T14:30:48.758Z,10.7
2017-03-22T14:31:51.470Z,10.7
2017-03-22T14:32:53.808Z,10.6